createdAt,value
2023-03-02T00:01:53.603Z,46.89
2023-03-02T00:04:24.294Z,46.80
2023-03-02T00:06:56.417Z,46.84
2023-03-02T00:09:24.466Z,46.67
2023-03-02T00:11:53.857Z,46.69
2023-03-02T00:14:21.887Z,46.59
2023-03-02T00:16:50.167Z,46.88
2023-03-02T00:19:18.109Z,46.68
2023-03-02T00:21:46.184Z,46.95
2023-03-02T00:24:15.560Z,46.97
2023-03-02T00:26:43.908Z,47.19
2023-03-02T00:29:13.358Z,47.19
2023-03-02T00:31:41.494Z,47.38
2023-03-02T00:34:09.513Z,47.12
2023-03-02T00:36:37.593Z,47.43
2023-03-02T00:39:06.197Z,47.76
2023-03-02T00:41:34.433Z,47.59
2023-03-02T00:44:02.496Z,47.67
2023-03-02T00:46:32.343Z,47.90
2023-03-02T00:49:00.644Z,47.81
2023-03-02T00:51:28.697Z,47.58
2023-03-02T00:53:56.697Z,47.88
2023-03-02T00:56:24.688Z,47.99
2023-03-02T00:58:52.576Z,47.75
2023-03-02T01:01:20.449Z,47.71
2023-03-02T01:03:49.861Z,47.45
2023-03-02T01:06:19.590Z,48.01
2023-03-02T01:08:48.180Z,47.94
2023-03-02T01:11:17.023Z,47.80
2023-03-02T01:13:45.944Z,47.97
2023-03-02T01:16:14.440Z,47.79
2023-03-02T01:18:42.625Z,48.02
2023-03-02T01:21:14.337Z,47.76
2023-03-02T01:23:42.895Z,48.06
2023-03-02T01:26:11.184Z,48.18
2023-03-02T01:28:39.281Z,47.54
2023-03-02T01:31:07.330Z,47.96
2023-03-02T01:33:35.301Z,47.75
2023-03-02T01:36:03.460Z,47.58
2023-03-02T01:38:32.961Z,47.81
2023-03-02T01:41:00.918Z,47.84
2023-03-02T01:43:29.541Z,48.15
2023-03-02T01:46:00.879Z,48.11
2023-03-02T01:48:32.785Z,47.80
2023-03-02T01:51:03.236Z,48.02
2023-03-02T01:53:37.159Z,48.03
2023-03-02T01:56:06.630Z,48.08
2023-03-02T01:58:37.165Z,48.17
2023-03-02T02:01:05.910Z,48.38
2023-03-02T02:03:33.962Z,48.03
2023-03-02T02:06:09.908Z,47.90
2023-03-02T02:08:40.127Z,48.22
2023-03-02T02:11:08.065Z,48.13
2023-03-02T02:13:36.249Z,48.21
2023-03-02T02:16:04.910Z,48.06
2023-03-02T02:18:33.737Z,48.21
2023-03-02T02:21:01.764Z,48.15
2023-03-02T02:23:35.120Z,47.97
2023-03-02T02:26:14.020Z,48.11
2023-03-02T02:28:47.507Z,47.93
2023-03-02T02:31:21.147Z,47.94
2023-03-02T02:33:54.016Z,48.28
2023-03-02T02:36:26.651Z,47.96
2023-03-02T02:38:57.183Z,48.20
2023-03-02T02:41:31.920Z,48.47
2023-03-02T02:44:00.012Z,48.24
2023-03-02T02:46:28.225Z,48.24
2023-03-02T02:48:56.178Z,48.37
2023-03-02T02:51:28.436Z,48.49
2023-03-02T02:53:59.716Z,48.29
2023-03-02T02:56:33.225Z,47.98
2023-03-02T02:59:05.531Z,48.28
2023-03-02T03:01:35.549Z,48.61
2023-03-02T03:04:06.663Z,48.26
2023-03-02T03:06:42.747Z,48.28
2023-03-02T03:09:12.440Z,48.58
2023-03-02T03:11:44.620Z,48.54
2023-03-02T03:14:15.356Z,48.19
2023-03-02T03:16:45.509Z,48.34
2023-03-02T03:19:19.633Z,48.58
2023-03-02T03:21:50.553Z,48.40
2023-03-02T03:24:18.980Z,48.41
2023-03-02T03:26:49.224Z,48.66
2023-03-02T03:29:18.426Z,48.18
2023-03-02T03:31:46.697Z,48.89
2023-03-02T03:34:14.822Z,48.45
2023-03-02T03:36:43.512Z,48.79
2023-03-02T03:39:12.964Z,48.88
2023-03-02T03:41:41.985Z,48.71
2023-03-02T03:44:12.037Z,48.73
2023-03-02T03:46:40.289Z,48.70
2023-03-02T03:49:08.219Z,48.72
2023-03-02T03:51:36.416Z,48.58
2023-03-02T03:54:08.048Z,48.84
2023-03-02T03:56:38.632Z,48.76
2023-03-02T03:59:08.953Z,48.82
2023-03-02T04:01:40.694Z,48.73
2023-03-02T04:04:11.150Z,49.18
2023-03-02T04:06:39.077Z,48.83
2023-03-02T04:09:07.630Z,48.92
2023-03-02T04:11:38.364Z,49.09
2023-03-02T04:14:07.667Z,49.24
2023-03-02T04:16:37.024Z,49.12
2023-03-02T04:19:09.640Z,49.04
2023-03-02T04:21:39.048Z,49.06
2023-03-02T04:24:08.029Z,49.20
2023-03-02T04:26:37.027Z,49.30
2023-03-02T04:29:05.267Z,49.22
2023-03-02T04:31:33.340Z,49.17
2023-03-02T04:34:04.392Z,49.46
2023-03-02T04:36:35.613Z,49.17
2023-03-02T04:39:04.530Z,49.32
2023-03-02T04:41:32.625Z,49.47
2023-03-02T04:44:00.734Z,49.37
2023-03-02T04:46:29.725Z,49.32
2023-03-02T04:48:58.247Z,49.44
2023-03-02T04:51:28.005Z,49.42
2023-03-02T04:54:04.068Z,49.37
2023-03-02T04:56:35.190Z,49.63
2023-03-02T04:59:03.368Z,49.40
2023-03-02T05:01:31.357Z,49.46
2023-03-02T05:04:02.451Z,49.29
2023-03-02T05:06:32.161Z,49.29
2023-03-02T05:09:01.866Z,49.30
2023-03-02T05:11:29.802Z,49.43
2023-03-02T05:13:59.904Z,49.54
2023-03-02T05:16:32.278Z,49.14
2023-03-02T05:19:02.106Z,49.03
2023-03-02T05:21:30.424Z,49.24
2023-03-02T05:23:59.440Z,49.32
2023-03-02T05:26:28.959Z,49.27
2023-03-02T05:28:57.632Z,49.07
2023-03-02T05:31:30.655Z,49.34
2023-03-02T05:33:59.772Z,49.07
2023-03-02T05:36:27.612Z,49.19
2023-03-02T05:38:55.719Z,49.37
2023-03-02T05:41:23.796Z,49.18
2023-03-02T05:43:53.644Z,49.09
2023-03-02T05:46:22.166Z,49.58
2023-03-02T05:48:50.351Z,49.35
2023-03-02T05:51:18.332Z,49.04
2023-03-02T05:53:46.463Z,49.25
2023-03-02T05:56:14.588Z,49.04
2023-03-02T05:58:42.724Z,49.10
2023-03-02T06:01:15.443Z,48.93
2023-03-02T06:03:43.712Z,49.55
2023-03-02T06:06:14.162Z,49.28
2023-03-02T06:08:42.607Z,49.28
2023-03-02T06:11:11.365Z,49.11
2023-03-02T06:13:39.652Z,49.09
2023-03-02T06:16:08.651Z,49.22
2023-03-02T06:18:41.295Z,49.20
2023-03-02T06:21:09.873Z,49.26
2023-03-02T06:23:37.927Z,49.27
2023-03-02T06:26:09.423Z,49.06
2023-03-02T06:28:51.019Z,48.85
2023-03-02T06:31:19.771Z,49.36
2023-03-02T06:33:49.190Z,49.09
2023-03-02T06:36:17.680Z,49.16
2023-03-02T06:38:45.802Z,49.02
2023-03-02T06:41:13.791Z,48.92
2023-03-02T06:43:41.760Z,48.88
2023-03-02T06:46:09.879Z,48.90
2023-03-02T06:48:38.084Z,49.04
2023-03-02T06:51:08.494Z,48.85
2023-03-02T06:53:36.602Z,48.83
2023-03-02T06:56:04.874Z,48.52
2023-03-02T06:58:32.833Z,48.75
2023-03-02T07:01:00.845Z,48.67
2023-03-02T07:03:28.871Z,48.70
2023-03-02T07:05:57.044Z,48.43
2023-03-02T07:08:26.409Z,48.79
2023-03-02T07:10:54.463Z,48.85
2023-03-02T07:13:22.379Z,48.62
2023-03-02T07:15:50.342Z,48.71
2023-03-02T07:18:19.048Z,48.78
2023-03-02T07:20:47.018Z,48.68
2023-03-02T07:23:14.987Z,48.71
2023-03-02T07:25:44.386Z,48.67
2023-03-02T07:28:12.399Z,48.60
2023-03-02T07:30:40.435Z,48.41
2023-03-02T07:33:08.310Z,48.58
2023-03-02T07:35:36.348Z,48.46
2023-03-02T07:38:04.529Z,48.36
2023-03-02T07:40:32.413Z,48.46
2023-03-02T07:43:02.067Z,48.40
2023-03-02T07:45:29.992Z,48.49
2023-03-02T07:47:58.131Z,48.54
2023-03-02T07:50:26.454Z,48.66
2023-03-02T07:52:54.553Z,48.59
2023-03-02T07:55:22.686Z,48.16
2023-03-02T07:57:50.838Z,48.46
2023-03-02T08:00:21.899Z,48.26
2023-03-02T08:02:50.029Z,48.27
2023-03-02T08:05:18.143Z,48.10
2023-03-02T08:07:48.600Z,47.93
2023-03-02T08:10:16.726Z,48.27
2023-03-02T08:12:44.894Z,47.88
2023-03-02T08:15:13.496Z,47.83
2023-03-02T08:17:43.010Z,47.33
2023-03-02T08:20:11.920Z,47.46
2023-03-02T08:22:39.989Z,47.35
2023-03-02T08:25:09.168Z,47.13
2023-03-02T08:27:37.132Z,46.92
2023-03-02T08:30:06.044Z,46.90
2023-03-02T08:32:34.428Z,46.56
2023-03-02T08:35:05.067Z,46.64
2023-03-02T08:37:33.380Z,46.31
2023-03-02T08:40:01.347Z,45.99
2023-03-02T08:42:29.459Z,45.76
2023-03-02T08:44:57.558Z,45.67
2023-03-02T08:47:25.702Z,45.54
2023-03-02T08:49:53.586Z,45.27
2023-03-02T08:52:22.878Z,45.09
2023-03-02T08:54:50.836Z,45.06
2023-03-02T08:57:21.228Z,44.99
2023-03-02T08:59:49.380Z,44.59
2023-03-02T09:02:17.330Z,44.76
2023-03-02T09:04:45.842Z,44.30
2023-03-02T09:07:17.566Z,44.18
2023-03-02T09:09:47.059Z,44.27
2023-03-02T09:12:15.015Z,43.89
2023-03-02T09:14:43.084Z,43.79
2023-03-02T09:17:13.020Z,43.43
2023-03-02T09:19:44.326Z,43.65
2023-03-02T09:22:12.906Z,43.58
2023-03-02T09:24:40.840Z,43.16
2023-03-02T09:27:10.339Z,43.12
2023-03-02T09:29:38.356Z,42.70
2023-03-02T09:32:06.735Z,42.79
2023-03-02T09:34:34.710Z,42.78
2023-03-02T09:37:03.440Z,42.50
2023-03-02T09:39:31.752Z,42.46
2023-03-02T09:42:17.498Z,42.22
2023-03-02T09:45:22.138Z,42.06
2023-03-02T09:47:59.118Z,41.82
2023-03-02T09:50:31.596Z,41.69
2023-03-02T09:53:26.056Z,41.52
2023-03-02T09:55:59.200Z,41.52
2023-03-02T09:58:32.744Z,41.44
2023-03-02T10:01:04.375Z,41.23
2023-03-02T10:03:39.709Z,41.47
2023-03-02T10:06:07.990Z,40.89
2023-03-02T10:08:37.683Z,41.13
2023-03-02T10:11:14.141Z,40.50
2023-03-02T10:13:50.158Z,40.60
2023-03-02T10:16:28.773Z,40.68
2023-03-02T10:19:08.218Z,40.98
2023-03-02T10:21:40.417Z,40.91
2023-03-02T10:24:19.069Z,40.63
2023-03-02T10:26:48.818Z,40.24
2023-03-02T10:29:34.107Z,39.98
2023-03-02T10:32:11.902Z,39.94
2023-03-02T10:34:40.026Z,39.93
2023-03-02T10:37:14.759Z,40.12
2023-03-02T10:39:43.045Z,40.29
2023-03-02T10:42:16.901Z,40.22
2023-03-02T10:44:52.244Z,40.24
2023-03-02T10:47:22.752Z,40.41
2023-03-02T10:49:51.700Z,40.30
2023-03-02T10:52:21.338Z,40.44
2023-03-02T10:54:49.947Z,40.36
2023-03-02T10:57:39.376Z,39.95
2023-03-02T11:00:19.766Z,39.72
2023-03-02T11:02:52.128Z,39.29
2023-03-02T11:05:29.756Z,39.08
2023-03-02T11:07:59.545Z,39.11
2023-03-02T11:10:32.005Z,39.46
2023-03-02T11:13:01.751Z,39.18
2023-03-02T11:15:41.804Z,38.85
2023-03-02T11:18:27.571Z,39.25
2023-03-02T11:21:00.073Z,39.21
2023-03-02T11:23:36.537Z,39.60
2023-03-02T11:26:11.387Z,39.67
2023-03-02T11:28:48.524Z,39.43
2023-03-02T11:31:27.577Z,39.27
2023-03-02T11:34:16.759Z,38.46
2023-03-02T11:36:58.058Z,38.28
2023-03-02T11:39:33.401Z,38.17
2023-03-02T11:42:01.354Z,38.67
2023-03-02T11:44:29.923Z,38.53
2023-03-02T11:47:02.386Z,38.09
2023-03-02T11:49:39.346Z,38.21
2023-03-02T11:52:17.316Z,37.89
2023-03-02T11:54:48.720Z,37.61
2023-03-02T11:57:24.474Z,37.73
2023-03-02T11:59:54.544Z,38.06
2023-03-02T12:02:24.421Z,38.20
2023-03-02T12:05:03.661Z,37.88
2023-03-02T12:07:32.012Z,38.03
2023-03-02T12:10:02.896Z,38.23
2023-03-02T12:12:42.463Z,38.31
2023-03-02T12:15:37.304Z,38.21
2023-03-02T12:18:29.649Z,38.14
2023-03-02T12:21:03.905Z,37.71
2023-03-02T12:23:33.794Z,37.56
2023-03-02T12:26:09.350Z,37.30
2023-03-02T12:28:39.319Z,37.41
2023-03-02T12:31:11.264Z,37.97
2023-03-02T12:33:47.509Z,37.93
2023-03-02T12:36:19.727Z,38.40
2023-03-02T12:39:02.579Z,37.87
2023-03-02T12:41:47.980Z,37.69
2023-03-02T12:44:31.766Z,37.41
2023-03-02T12:47:02.301Z,37.16
2023-03-02T12:49:47.446Z,37.05
2023-03-02T12:52:27.513Z,37.50
2023-03-02T12:55:03.512Z,37.51
2023-03-02T12:57:32.113Z,37.47
2023-03-02T13:00:02.452Z,37.38
2023-03-02T13:02:32.129Z,37.45
2023-03-02T13:05:03.546Z,37.61
2023-03-02T13:07:37.843Z,37.29
2023-03-02T13:10:17.827Z,37.22
2023-03-02T13:12:47.385Z,37.48
2023-03-02T13:15:17.979Z,37.22
2023-03-02T13:17:53.644Z,37.17
2023-03-02T13:20:24.782Z,37.46
2023-03-02T13:22:53.377Z,37.23
2023-03-02T13:25:25.893Z,36.99
2023-03-02T13:27:55.923Z,37.27
2023-03-02T13:30:27.581Z,37.16
2023-03-02T13:33:01.834Z,36.99
2023-03-02T13:35:33.873Z,36.78
2023-03-02T13:38:04.604Z,36.45
2023-03-02T13:40:52.113Z,36.69
2023-03-02T13:43:37.244Z,36.94
2023-03-02T13:46:08.306Z,36.51
2023-03-02T13:48:36.227Z,36.60
2023-03-02T13:51:16.943Z,36.50
2023-03-02T13:53:51.905Z,36.72
2023-03-02T13:56:20.529Z,36.69
2023-03-02T13:58:48.617Z,36.00
2023-03-02T14:01:16.565Z,35.64
2023-03-02T14:03:44.665Z,35.79
2023-03-02T14:06:14.169Z,35.88
2023-03-02T14:08:42.135Z,35.88
2023-03-02T14:11:13.091Z,35.64
2023-03-02T14:13:43.834Z,35.46
2023-03-02T14:16:13.935Z,35.23
2023-03-02T14:18:43.929Z,35.12
2023-03-02T14:21:19.107Z,34.83
2023-03-02T14:23:48.345Z,35.07
2023-03-02T14:26:28.432Z,36.09
2023-03-02T14:29:05.465Z,37.67
2023-03-02T14:31:34.664Z,38.34
2023-03-02T14:34:02.854Z,38.66
2023-03-02T14:36:34.958Z,37.61
2023-03-02T14:39:06.111Z,36.97
2023-03-02T14:41:43.949Z,35.50
2023-03-02T14:44:19.429Z,34.39
2023-03-02T14:46:47.780Z,32.63
2023-03-02T14:49:15.877Z,31.60
2023-03-02T14:51:50.485Z,30.25
2023-03-02T14:54:21.177Z,30.31
2023-03-02T14:56:50.598Z,30.28
2023-03-02T14:59:18.832Z,29.54
2023-03-02T15:01:46.998Z,29.33
2023-03-02T15:04:14.962Z,29.04
2023-03-02T15:06:45.356Z,28.24
2023-03-02T15:09:13.727Z,28.23
2023-03-02T15:11:41.860Z,28.12
2023-03-02T15:14:09.862Z,28.00
2023-03-02T15:16:37.990Z,27.40
2023-03-02T15:19:06.363Z,27.18
2023-03-02T15:21:34.948Z,26.98
2023-03-02T15:24:05.205Z,27.27
2023-03-02T15:26:33.503Z,26.77
2023-03-02T15:29:02.285Z,26.48
2023-03-02T15:31:30.591Z,26.64
2023-03-02T15:33:58.781Z,26.04
2023-03-02T15:36:27.012Z,25.63
2023-03-02T15:38:55.181Z,25.87
2023-03-02T15:41:24.620Z,26.04
2023-03-02T15:43:53.323Z,26.57
2023-03-02T15:46:22.310Z,27.00
2023-03-02T15:48:52.042Z,27.75
2023-03-02T15:51:20.764Z,28.12
2023-03-02T15:53:49.122Z,28.68
2023-03-02T15:56:17.930Z,28.85
2023-03-02T15:58:51.450Z,28.79
2023-03-02T16:01:19.413Z,28.81
2023-03-02T16:03:47.487Z,28.75
2023-03-02T16:06:16.061Z,29.08
2023-03-02T16:08:44.061Z,29.46
2023-03-02T16:11:15.479Z,29.20
2023-03-02T16:13:44.907Z,29.56
2023-03-02T16:16:14.471Z,29.34
2023-03-02T16:18:42.500Z,29.02
2023-03-02T16:21:14.017Z,28.96
2023-03-02T16:23:42.646Z,29.19
2023-03-02T16:26:12.096Z,29.27
2023-03-02T16:28:40.164Z,29.86
2023-03-02T16:31:10.528Z,30.19
2023-03-02T16:33:40.482Z,30.41
2023-03-02T16:36:10.400Z,30.75
2023-03-02T16:38:38.704Z,30.89
2023-03-02T16:41:14.182Z,31.15
2023-03-02T16:43:45.938Z,31.68
2023-03-02T16:46:14.288Z,32.39
2023-03-02T16:48:45.051Z,32.43
2023-03-02T16:51:13.783Z,32.49
2023-03-02T16:53:42.595Z,32.08
2023-03-02T16:56:12.193Z,31.80
2023-03-02T16:58:41.409Z,30.98
2023-03-02T17:01:11.692Z,30.32
2023-03-02T17:03:39.934Z,29.76
2023-03-02T17:06:13.785Z,28.02
2023-03-02T17:08:42.563Z,27.31
2023-03-02T17:11:10.779Z,26.90
2023-03-02T17:13:39.710Z,27.17
2023-03-02T17:16:08.030Z,27.62
2023-03-02T17:18:36.107Z,28.26
2023-03-02T17:21:06.160Z,27.65
2023-03-02T17:23:37.107Z,27.02
2023-03-02T17:26:05.471Z,27.39
2023-03-02T17:28:33.477Z,27.40
2023-03-02T17:31:03.492Z,27.48
2023-03-02T17:33:34.050Z,27.58
2023-03-02T17:36:06.293Z,27.58
2023-03-02T17:38:35.762Z,27.44
2023-03-02T17:41:05.198Z,27.51
2023-03-02T17:43:34.129Z,27.64
2023-03-02T17:46:14.405Z,27.38
2023-03-02T17:48:43.740Z,27.67
2023-03-02T17:51:14.914Z,28.05
2023-03-02T17:53:44.330Z,28.30
2023-03-02T17:56:13.433Z,28.08
2023-03-02T17:58:45.342Z,28.66
2023-03-02T18:01:15.837Z,28.84
2023-03-02T18:03:45.113Z,29.44
2023-03-02T18:06:13.426Z,29.81
2023-03-02T18:08:41.573Z,29.75
2023-03-02T18:11:11.767Z,30.61
2023-03-02T18:13:40.286Z,31.27
2023-03-02T18:16:08.613Z,31.41
2023-03-02T18:18:36.617Z,31.76
2023-03-02T18:21:04.853Z,32.25
2023-03-02T18:23:33.315Z,32.38
2023-03-02T18:26:01.294Z,32.61
2023-03-02T18:28:30.758Z,33.01
2023-03-02T18:30:58.753Z,33.21
2023-03-02T18:33:26.702Z,33.58
2023-03-02T18:35:54.767Z,34.22
2023-03-02T18:38:22.883Z,34.08
2023-03-02T18:40:50.846Z,34.49
2023-03-02T18:43:18.914Z,34.81
2023-03-02T18:45:48.402Z,34.82
2023-03-02T18:48:16.500Z,35.30
2023-03-02T18:50:44.872Z,35.24
2023-03-02T18:53:13.042Z,35.52
2023-03-02T18:55:41.907Z,36.04
2023-03-02T18:58:14.727Z,36.10
2023-03-02T19:00:43.732Z,36.27
2023-03-02T19:03:13.755Z,36.49
2023-03-02T19:05:42.482Z,36.62
2023-03-02T19:08:11.317Z,37.14
2023-03-02T19:10:42.486Z,37.00
2023-03-02T19:13:15.654Z,37.04
2023-03-02T19:15:44.609Z,37.20
2023-03-02T19:18:16.642Z,37.60
2023-03-02T19:20:47.222Z,37.85
2023-03-02T19:23:16.014Z,37.99
2023-03-02T19:25:47.278Z,38.22
2023-03-02T19:28:16.178Z,38.31
2023-03-02T19:30:44.367Z,38.35
2023-03-02T19:33:14.282Z,38.61
2023-03-02T19:35:43.212Z,38.55
2023-03-02T19:38:12.755Z,38.91
2023-03-02T19:40:40.836Z,38.86
2023-03-02T19:43:09.177Z,39.26
2023-03-02T19:45:38.424Z,39.76
2023-03-02T19:48:07.464Z,39.36
2023-03-02T19:50:37.084Z,39.49
2023-03-02T19:53:05.167Z,39.44
2023-03-02T19:55:34.345Z,39.55
2023-03-02T19:58:02.619Z,39.97
2023-03-02T20:00:32.825Z,39.95
2023-03-02T20:03:01.972Z,39.86
2023-03-02T20:05:30.135Z,40.04
2023-03-02T20:08:00.173Z,40.22
2023-03-02T20:10:31.611Z,40.20
2023-03-02T20:13:01.114Z,40.25
2023-03-02T20:15:30.419Z,40.39
2023-03-02T20:18:02.746Z,40.39
2023-03-02T20:20:32.192Z,40.98
2023-03-02T20:23:02.397Z,40.85
2023-03-02T20:25:30.430Z,40.99
2023-03-02T20:27:59.800Z,40.94
2023-03-02T20:30:33.615Z,41.13
2023-03-02T20:33:03.152Z,41.07
2023-03-02T20:35:33.739Z,41.10
2023-03-02T20:38:08.227Z,41.15
2023-03-02T20:40:40.521Z,41.27
2023-03-02T20:43:08.790Z,41.28
2023-03-02T20:45:44.271Z,41.58
2023-03-02T20:48:13.377Z,41.51
2023-03-02T20:50:43.399Z,41.70
2023-03-02T20:53:15.952Z,41.94
2023-03-02T20:55:45.027Z,41.56
2023-03-02T20:58:14.729Z,41.90
2023-03-02T21:00:44.267Z,41.74
2023-03-02T21:03:13.432Z,41.87
2023-03-02T21:05:44.369Z,42.23
2023-03-02T21:08:15.486Z,42.21
2023-03-02T21:10:45.205Z,41.91
2023-03-02T21:13:13.654Z,42.39
2023-03-02T21:24:06.585Z,42.53
2023-03-02T21:26:35.040Z,42.85
2023-03-02T21:29:06.653Z,42.94
2023-03-02T21:31:50.632Z,43.00
2023-03-02T21:34:23.166Z,43.19
2023-03-02T21:37:10.373Z,42.66
2023-03-02T21:39:44.808Z,42.83
2023-03-02T21:42:15.137Z,42.79
2023-03-02T21:44:49.254Z,42.99
2023-03-02T21:47:21.724Z,42.83
2023-03-02T21:49:53.007Z,43.20
2023-03-02T21:52:21.169Z,42.84
2023-03-02T21:54:51.122Z,43.15
2023-03-02T21:57:19.479Z,43.24
2023-03-02T21:59:47.725Z,43.43
2023-03-02T22:02:15.908Z,43.49
2023-03-02T22:04:43.976Z,43.26
2023-03-02T22:07:12.451Z,43.60
2023-03-02T22:09:40.446Z,43.53
2023-03-02T22:12:13.925Z,43.50
2023-03-02T22:14:42.311Z,43.89
2023-03-02T22:17:17.778Z,43.84
2023-03-02T22:19:46.428Z,43.50
2023-03-02T22:22:19.496Z,43.37
2023-03-02T22:24:50.071Z,43.86
2023-03-02T22:27:24.402Z,44.10
2023-03-02T22:29:54.698Z,43.70
2023-03-02T22:32:24.423Z,43.97
2023-03-02T22:34:53.953Z,43.76
2023-03-02T22:37:23.642Z,43.75
2023-03-02T22:39:56.157Z,44.01
2023-03-02T22:42:27.037Z,43.91
2023-03-02T22:45:02.921Z,44.02
2023-03-02T22:47:30.956Z,43.89
2023-03-02T22:50:01.763Z,44.11
2023-03-02T22:52:43.147Z,43.83
2023-03-02T22:55:35.479Z,43.79
2023-03-02T22:58:30.013Z,43.60
2023-03-02T23:00:58.729Z,43.75
2023-03-02T23:03:37.349Z,44.05
2023-03-02T23:06:26.930Z,44.19
2023-03-02T23:08:56.588Z,44.04
2023-03-02T23:11:25.708Z,44.29
2023-03-02T23:13:55.828Z,44.23
2023-03-02T23:16:26.716Z,44.33
2023-03-02T23:18:59.228Z,44.17
2023-03-02T23:21:32.105Z,44.34
2023-03-02T23:24:01.514Z,44.35
2023-03-02T23:26:29.466Z,44.31
2023-03-02T23:28:58.880Z,44.36
2023-03-02T23:31:27.347Z,44.76
2023-03-02T23:33:55.317Z,44.80
2023-03-02T23:36:23.409Z,45.04
2023-03-02T23:38:51.824Z,44.60
2023-03-02T23:41:19.869Z,44.61
2023-03-02T23:43:48.198Z,44.66
2023-03-02T23:46:17.837Z,44.46
2023-03-02T23:48:46.133Z,44.93
2023-03-02T23:51:14.059Z,44.69
2023-03-02T23:53:42.032Z,45.03
2023-03-02T23:56:10.140Z,44.85
2023-03-02T23:58:38.356Z,44.99
